createdAt,value
2023-04-22T00:00:09.118Z,8.80
2023-04-22T00:02:37.463Z,8.80
2023-04-22T00:05:08.682Z,8.80
2023-04-22T00:07:35.999Z,8.70
2023-04-22T00:10:03.101Z,8.80
2023-04-22T00:12:30.208Z,8.70
2023-04-22T00:14:57.227Z,8.70
2023-04-22T00:17:24.977Z,8.60
2023-04-22T00:19:52.170Z,8.50
2023-04-22T00:22:19.238Z,8.50
2023-04-22T00:24:46.219Z,8.40
2023-04-22T00:27:13.248Z,8.50
2023-04-22T00:29:40.488Z,8.50
2023-04-22T00:32:07.787Z,8.50
2023-04-22T00:34:34.900Z,8.40
2023-04-22T00:37:02.015Z,8.40
2023-04-22T00:39:28.993Z,8.40
2023-04-22T00:41:57.287Z,8.20
2023-04-22T00:44:25.477Z,8.10
2023-04-22T00:46:52.875Z,8.00
2023-04-22T00:49:20.593Z,8.00
2023-04-22T00:51:47.470Z,8.10
2023-04-22T00:54:14.434Z,8.00
2023-04-22T00:56:41.731Z,7.90
2023-04-22T00:59:09.969Z,7.80
2023-04-22T01:01:37.598Z,7.70
2023-04-22T01:04:05.390Z,7.60
2023-04-22T01:06:33.364Z,7.80
2023-04-22T01:09:00.369Z,7.70
2023-04-22T01:11:27.473Z,7.70
2023-04-22T01:13:54.543Z,7.80
2023-04-22T01:16:23.195Z,7.60
2023-04-22T01:18:51.000Z,7.50
2023-04-22T01:21:19.512Z,7.40
2023-04-22T01:23:47.047Z,7.50
2023-04-22T01:26:14.022Z,7.50
2023-04-22T01:28:41.185Z,7.60
2023-04-22T01:31:08.719Z,7.40
2023-04-22T01:33:36.167Z,7.50
2023-04-22T01:36:03.227Z,7.50
2023-04-22T01:38:33.549Z,7.50
2023-04-22T01:41:03.668Z,7.60
2023-04-22T01:43:31.912Z,7.60
2023-04-22T01:46:01.586Z,7.50
2023-04-22T01:48:28.632Z,7.50
2023-04-22T01:50:56.068Z,7.50
2023-04-22T01:53:23.494Z,7.50
2023-04-22T01:55:52.815Z,7.60
2023-04-22T01:58:20.033Z,7.60
2023-04-22T02:00:47.863Z,7.60
2023-04-22T02:03:14.879Z,7.60
2023-04-22T02:05:42.002Z,7.60
2023-04-22T02:08:08.966Z,7.60
2023-04-22T02:10:36.366Z,7.60
2023-04-22T02:13:03.281Z,7.70
2023-04-22T02:15:31.144Z,7.60
2023-04-22T02:17:58.340Z,7.50
2023-04-22T02:20:25.466Z,7.50
2023-04-22T02:22:52.433Z,7.50
2023-04-22T02:25:20.991Z,7.50
2023-04-22T02:27:50.164Z,7.60
2023-04-22T02:30:17.409Z,7.60
2023-04-22T02:32:44.458Z,7.60
2023-04-22T02:35:12.096Z,7.60
2023-04-22T02:37:39.565Z,7.60
2023-04-22T02:40:07.646Z,7.70
2023-04-22T02:42:35.534Z,7.60
2023-04-22T02:45:02.835Z,7.60
2023-04-22T02:47:29.871Z,7.50
2023-04-22T02:49:56.888Z,7.50
2023-04-22T02:52:23.876Z,7.50
2023-04-22T02:54:50.882Z,7.60
2023-04-22T02:57:17.778Z,7.60
2023-04-22T02:59:44.728Z,7.50
2023-04-22T03:02:14.075Z,7.50
2023-04-22T03:05:04.611Z,7.50
2023-04-22T03:07:31.709Z,7.50
2023-04-22T03:09:59.551Z,7.60
2023-04-22T03:12:26.826Z,7.50
2023-04-22T03:14:54.040Z,7.50
2023-04-22T03:17:23.433Z,7.50
2023-04-22T03:19:50.409Z,7.40
2023-04-22T03:22:17.443Z,7.40
2023-04-22T03:24:44.960Z,7.40
2023-04-22T03:27:11.970Z,7.30
2023-04-22T03:29:40.060Z,7.30
2023-04-22T03:32:07.929Z,7.40
2023-04-22T03:34:37.235Z,7.40
2023-04-22T03:37:05.275Z,7.40
2023-04-22T03:39:32.332Z,7.50
2023-04-22T03:41:59.850Z,7.50
2023-04-22T03:44:26.908Z,7.50
2023-04-22T03:46:55.699Z,7.40
2023-04-22T03:49:27.773Z,7.40
2023-04-22T03:51:56.314Z,7.40
2023-04-22T03:54:27.544Z,7.40
2023-04-22T03:56:55.818Z,7.40
2023-04-22T03:59:23.884Z,7.40
2023-04-22T04:01:53.458Z,7.40
2023-04-22T04:04:23.996Z,7.40
2023-04-22T04:06:56.905Z,7.40
2023-04-22T04:09:23.876Z,7.40
2023-04-22T04:11:51.919Z,7.40
2023-04-22T04:14:18.921Z,7.40
2023-04-22T04:16:47.778Z,7.40
2023-04-22T04:19:23.559Z,7.50
2023-04-22T04:21:51.540Z,7.50
2023-04-22T04:24:19.417Z,7.50
2023-04-22T04:26:49.947Z,7.60
2023-04-22T04:29:25.512Z,7.50
2023-04-22T04:32:05.229Z,7.50
2023-04-22T04:34:32.451Z,7.50
2023-04-22T04:36:59.633Z,7.50
2023-04-22T04:39:35.071Z,7.50
2023-04-22T04:42:03.996Z,7.50
2023-04-22T04:44:34.293Z,7.50
2023-04-22T04:47:04.327Z,7.50
2023-04-22T04:49:32.570Z,7.50
2023-04-22T04:52:01.872Z,7.50
2023-04-22T04:54:30.567Z,7.50
2023-04-22T04:56:59.680Z,7.50
2023-04-22T04:59:26.797Z,7.50
2023-04-22T05:01:54.463Z,7.60
2023-04-22T05:04:22.372Z,7.50
2023-04-22T05:06:49.754Z,7.60
2023-04-22T05:09:17.215Z,7.60
2023-04-22T05:11:46.819Z,7.60
2023-04-22T05:14:18.515Z,7.60
2023-04-22T05:16:46.714Z,7.60
2023-04-22T05:19:14.725Z,7.60
2023-04-22T05:21:42.805Z,7.70
2023-04-22T05:24:09.781Z,7.60
2023-04-22T05:26:37.111Z,7.70
2023-04-22T05:29:10.559Z,7.60
2023-04-22T05:31:37.765Z,7.60
2023-04-22T05:34:05.190Z,7.60
2023-04-22T05:36:33.101Z,7.60
2023-04-22T05:39:00.606Z,7.60
2023-04-22T05:41:28.937Z,7.70
2023-04-22T05:43:58.604Z,7.70
2023-04-22T05:46:26.012Z,7.80
2023-04-22T05:48:55.883Z,7.80
2023-04-22T05:51:43.163Z,7.90
2023-04-22T05:54:12.677Z,8.00
2023-04-22T05:56:40.330Z,8.00
2023-04-22T05:59:07.871Z,8.00
2023-04-22T06:01:36.894Z,8.10
2023-04-22T06:04:10.131Z,8.10
2023-04-22T06:06:37.866Z,8.10
2023-04-22T06:09:08.006Z,8.20
2023-04-22T06:11:35.871Z,8.20
2023-04-22T06:14:03.428Z,8.30
2023-04-22T06:16:31.784Z,8.40
2023-04-22T06:18:58.857Z,8.40
2023-04-22T06:21:28.354Z,8.50
2023-04-22T06:23:56.785Z,8.50
2023-04-22T06:26:23.969Z,8.60
2023-04-22T06:28:53.844Z,8.60
2023-04-22T06:31:21.614Z,8.60
2023-04-22T06:33:49.592Z,8.60
2023-04-22T06:36:18.165Z,8.70
2023-04-22T06:38:51.171Z,8.70
2023-04-22T06:41:44.328Z,8.70
2023-04-22T06:44:50.790Z,8.80
2023-04-22T06:47:28.174Z,8.90
2023-04-22T06:50:15.020Z,8.90
2023-04-22T06:52:50.144Z,9.00
2023-04-22T06:55:18.482Z,9.10
2023-04-22T06:57:46.782Z,9.10
2023-04-22T07:00:17.623Z,9.20
2023-04-22T07:02:44.868Z,9.20
2023-04-22T07:05:11.915Z,9.20
2023-04-22T07:07:40.148Z,9.30
2023-04-22T07:10:10.833Z,9.40
2023-04-22T07:12:44.925Z,9.50
2023-04-22T07:15:12.254Z,9.50
2023-04-22T07:17:39.634Z,9.50
2023-04-22T07:20:07.357Z,9.70
2023-04-22T07:22:34.385Z,9.80
2023-04-22T07:25:01.909Z,9.80
2023-04-22T07:27:30.523Z,9.90
2023-04-22T07:30:00.283Z,10.00
2023-04-22T07:32:27.460Z,10.30
2023-04-22T07:34:54.489Z,10.40
2023-04-22T07:37:24.539Z,10.50
2023-04-22T07:39:51.563Z,10.70
2023-04-22T07:42:18.635Z,10.90
2023-04-22T07:44:45.718Z,11.20
2023-04-22T07:47:12.798Z,11.40
2023-04-22T07:49:43.812Z,11.50
2023-04-22T07:52:11.217Z,11.80
2023-04-22T07:54:38.584Z,12.00
2023-04-22T07:57:05.625Z,12.00
2023-04-22T07:59:32.642Z,12.20
2023-04-22T08:01:59.620Z,12.20
2023-04-22T08:04:27.198Z,12.40
2023-04-22T08:06:55.070Z,12.50
2023-04-22T08:09:22.115Z,12.40
2023-04-22T08:11:52.979Z,12.40
2023-04-22T08:14:20.818Z,12.50
2023-04-22T08:16:47.878Z,12.70
2023-04-22T08:19:14.929Z,12.80
2023-04-22T08:21:43.372Z,12.90
2023-04-22T08:24:10.988Z,13.00
2023-04-22T08:26:42.361Z,13.00
2023-04-22T08:29:10.083Z,13.20
2023-04-22T08:31:37.331Z,13.20
2023-04-22T08:34:04.374Z,13.30
2023-04-22T08:36:31.860Z,13.40
2023-04-22T08:38:58.977Z,13.60
2023-04-22T08:41:26.606Z,13.70
2023-04-22T08:43:53.889Z,13.80
2023-04-22T08:46:24.105Z,13.80
2023-04-22T08:48:52.069Z,14.00
2023-04-22T08:51:19.118Z,14.10
2023-04-22T08:53:46.825Z,14.20
2023-04-22T08:56:14.576Z,14.30
2023-04-22T08:58:42.728Z,14.50
2023-04-22T09:01:10.459Z,14.50
2023-04-22T09:03:40.803Z,14.40
2023-04-22T09:06:10.869Z,14.50
2023-04-22T09:08:38.738Z,14.60
2023-04-22T09:11:05.773Z,14.90
2023-04-22T09:13:34.768Z,15.00
2023-04-22T09:16:01.994Z,15.10
2023-04-22T09:18:29.050Z,15.20
2023-04-22T09:20:57.207Z,15.20
2023-04-22T09:23:24.928Z,15.20
2023-04-22T09:25:52.397Z,15.20
2023-04-22T09:28:20.191Z,15.50
2023-04-22T09:30:48.141Z,15.70
2023-04-22T09:33:15.750Z,15.90
2023-04-22T09:35:43.939Z,15.80
2023-04-22T09:38:12.481Z,15.80
2023-04-22T09:40:43.490Z,16.00
2023-04-22T09:43:11.621Z,16.10
2023-04-22T09:45:41.274Z,16.10
2023-04-22T09:48:20.331Z,15.80
2023-04-22T09:50:49.985Z,15.70
2023-04-22T09:53:18.985Z,15.70
2023-04-22T09:55:48.522Z,15.90
2023-04-22T09:58:18.119Z,16.10
2023-04-22T10:00:52.206Z,16.30
2023-04-22T10:03:19.824Z,16.40
2023-04-22T10:05:47.436Z,16.40
2023-04-22T10:08:16.310Z,16.20
2023-04-22T10:10:44.081Z,16.30
2023-04-22T10:13:11.244Z,16.50
2023-04-22T10:15:44.566Z,16.20
2023-04-22T10:18:16.213Z,16.20
2023-04-22T10:20:44.386Z,16.10
2023-04-22T10:23:19.977Z,16.20
2023-04-22T10:25:55.888Z,16.20
2023-04-22T10:28:24.986Z,16.00
2023-04-22T10:30:52.213Z,16.10
2023-04-22T10:33:23.715Z,16.20
2023-04-22T10:36:09.324Z,16.10
2023-04-22T10:38:57.928Z,16.00
2023-04-22T10:41:35.113Z,15.80
2023-04-22T10:44:08.430Z,15.60
2023-04-22T10:46:37.767Z,15.60
2023-04-22T10:49:18.313Z,15.50
2023-04-22T10:51:59.893Z,15.50
2023-04-22T10:54:31.009Z,15.40
2023-04-22T10:57:15.497Z,15.40
2023-04-22T10:59:50.235Z,15.40
2023-04-22T11:02:19.209Z,15.20
2023-04-22T11:04:46.947Z,15.10
2023-04-22T11:07:31.916Z,15.00
2023-04-22T11:10:10.613Z,14.80
2023-04-22T11:12:42.698Z,14.60
2023-04-22T11:15:23.077Z,14.50
2023-04-22T11:17:56.100Z,14.40
2023-04-22T11:20:23.766Z,14.40
2023-04-22T11:22:56.152Z,14.40
2023-04-22T11:25:25.201Z,14.30
2023-04-22T11:27:54.027Z,14.30
2023-04-22T11:30:23.226Z,14.20
2023-04-22T11:32:52.459Z,14.10
2023-04-22T11:35:33.571Z,14.00
2023-04-22T11:38:05.922Z,14.00
2023-04-22T11:40:39.444Z,13.90
2023-04-22T11:43:09.580Z,13.80
2023-04-22T11:45:38.879Z,13.80
2023-04-22T11:48:09.228Z,13.70
2023-04-22T11:50:38.881Z,13.70
2023-04-22T11:53:16.650Z,13.70
2023-04-22T11:55:45.391Z,13.80
2023-04-22T11:58:24.909Z,13.90
2023-04-22T12:00:54.293Z,13.80
2023-04-22T12:03:27.631Z,13.90
2023-04-22T12:06:05.487Z,13.80
2023-04-22T12:08:37.220Z,13.80
2023-04-22T12:11:05.243Z,13.90
2023-04-22T12:13:36.549Z,14.00
2023-04-22T12:16:12.366Z,13.70
2023-04-22T12:18:41.929Z,13.70
2023-04-22T12:21:14.316Z,13.70
2023-04-22T12:23:52.572Z,13.90
2023-04-22T12:26:24.574Z,13.90
2023-04-22T12:28:54.444Z,13.70
2023-04-22T12:31:21.808Z,13.60
2023-04-22T12:33:49.268Z,13.50
2023-04-22T12:36:17.705Z,13.40
2023-04-22T12:38:44.714Z,13.50
2023-04-22T12:41:13.323Z,13.60
2023-04-22T12:43:40.642Z,13.50
2023-04-22T12:46:08.870Z,13.30
2023-04-22T12:48:39.493Z,13.40
2023-04-22T12:51:07.214Z,13.30
2023-04-22T12:53:34.864Z,13.30
2023-04-22T12:56:01.985Z,13.20
2023-04-22T12:58:28.984Z,13.20
2023-04-22T13:00:56.063Z,13.30
2023-04-22T13:03:23.562Z,13.30
2023-04-22T13:05:50.942Z,13.40
2023-04-22T13:08:18.080Z,13.40
2023-04-22T13:10:45.130Z,13.30
2023-04-22T13:15:42.008Z,13.20
2023-04-22T13:18:09.274Z,13.30
2023-04-22T13:20:37.055Z,13.30
2023-04-22T13:23:04.923Z,13.50
2023-04-22T13:25:32.148Z,13.50
2023-04-22T13:27:59.385Z,13.40
2023-04-22T13:30:26.644Z,13.40
2023-04-22T13:32:53.750Z,13.40
2023-04-22T13:35:20.904Z,13.40
2023-04-22T13:37:47.906Z,13.40
2023-04-22T13:40:15.122Z,13.40
2023-04-22T13:42:42.890Z,13.40
2023-04-22T13:45:10.230Z,13.20
2023-04-22T13:47:38.667Z,13.30
2023-04-22T13:50:06.498Z,13.40
2023-04-22T13:52:34.468Z,13.40
2023-04-22T13:55:04.161Z,13.40
2023-04-22T13:57:31.306Z,13.40
2023-04-22T13:59:58.307Z,13.40
2023-04-22T14:02:25.495Z,13.40
2023-04-22T14:04:52.893Z,13.40
2023-04-22T14:07:20.008Z,13.40
2023-04-22T14:09:47.002Z,13.40
2023-04-22T14:12:14.180Z,13.40
2023-04-22T14:14:41.191Z,13.20
2023-04-22T14:17:08.666Z,13.30
2023-04-22T14:19:38.986Z,13.30
2023-04-22T14:22:06.713Z,13.20
2023-04-22T14:24:35.022Z,13.20
2023-04-22T14:27:02.081Z,13.20
2023-04-22T14:29:29.986Z,13.10
2023-04-22T14:31:58.107Z,13.10
2023-04-22T14:34:27.286Z,13.10
2023-04-22T14:36:54.832Z,13.10
2023-04-22T14:39:21.966Z,13.00
2023-04-22T14:41:49.327Z,12.90
2023-04-22T14:44:16.695Z,12.80
2023-04-22T14:46:43.794Z,12.80
2023-04-22T14:49:10.895Z,12.70
2023-04-22T14:51:38.006Z,12.70
2023-04-22T14:54:05.182Z,12.70
2023-04-22T14:56:32.173Z,12.70
2023-04-22T14:58:59.089Z,12.60
2023-04-22T15:01:26.179Z,12.70
2023-04-22T15:03:53.527Z,12.70
2023-04-22T15:06:20.745Z,12.70
2023-04-22T15:08:47.706Z,12.60
2023-04-22T15:11:14.780Z,12.50
2023-04-22T15:13:41.704Z,12.40
2023-04-22T15:16:08.985Z,12.50
2023-04-22T15:18:36.174Z,12.30
2023-04-22T15:21:05.807Z,12.30
2023-04-22T15:23:33.296Z,12.40
2023-04-22T15:26:00.286Z,12.30
2023-04-22T15:28:27.290Z,12.30
2023-04-22T15:30:54.246Z,12.20
2023-04-22T15:33:21.452Z,12.10
2023-04-22T15:35:50.379Z,12.00
2023-04-22T15:38:18.045Z,12.10
2023-04-22T15:40:45.015Z,12.10
2023-04-22T15:43:12.034Z,12.00
2023-04-22T15:45:39.027Z,12.10
2023-04-22T15:48:06.423Z,11.80
2023-04-22T15:50:33.464Z,11.70
2023-04-22T15:53:00.451Z,11.70
2023-04-22T15:55:27.659Z,11.70
2023-04-22T15:57:57.665Z,11.80
2023-04-22T16:00:24.990Z,11.70
2023-04-22T16:02:56.000Z,11.80
2023-04-22T16:05:24.907Z,11.70
2023-04-22T16:07:53.158Z,11.50
2023-04-22T16:10:21.032Z,11.50
2023-04-22T16:12:49.637Z,11.40
2023-04-22T16:15:17.862Z,11.40
2023-04-22T16:17:45.190Z,11.50
2023-04-22T16:20:12.438Z,11.60
2023-04-22T16:22:39.503Z,11.70
2023-04-22T16:25:07.381Z,11.60
2023-04-22T16:27:34.676Z,11.70
2023-04-22T16:30:02.043Z,11.70
2023-04-22T16:32:29.012Z,11.80
2023-04-22T16:34:56.090Z,11.60
2023-04-22T16:37:23.162Z,11.70
2023-04-22T16:39:50.615Z,11.70
2023-04-22T16:42:17.769Z,11.50
2023-04-22T16:44:44.815Z,11.70
2023-04-22T16:47:11.857Z,11.50
2023-04-22T16:49:39.241Z,11.70
2023-04-22T16:52:06.524Z,11.90
2023-04-22T16:54:33.912Z,12.00
2023-04-22T16:57:01.613Z,12.00
2023-04-22T16:59:29.903Z,11.90
2023-04-22T17:01:57.475Z,12.00
2023-04-22T17:04:24.679Z,11.90
2023-04-22T17:06:51.899Z,11.80
2023-04-22T17:09:19.037Z,11.70
2023-04-22T17:11:46.757Z,11.60
2023-04-22T17:14:14.719Z,11.50
2023-04-22T17:16:41.755Z,11.10
2023-04-22T17:19:08.756Z,11.30
2023-04-22T17:21:36.160Z,11.40
2023-04-22T17:24:04.932Z,11.30
2023-04-22T17:26:32.395Z,11.30
2023-04-22T17:28:59.519Z,11.40
2023-04-22T17:31:26.702Z,11.30
2023-04-22T17:33:53.802Z,11.40
2023-04-22T17:36:20.777Z,11.40
2023-04-22T17:38:47.849Z,11.40
2023-04-22T17:41:15.496Z,11.30
2023-04-22T17:43:42.612Z,11.20
2023-04-22T17:46:09.610Z,11.20
2023-04-22T17:48:36.851Z,11.10
2023-04-22T17:51:07.163Z,11.00
2023-04-22T17:53:37.809Z,11.10
2023-04-22T17:56:05.072Z,11.10
2023-04-22T17:58:38.881Z,11.20
2023-04-22T18:01:11.394Z,11.10
2023-04-22T18:03:38.722Z,11.10
2023-04-22T18:06:10.723Z,11.00
2023-04-22T18:08:40.070Z,11.00
2023-04-22T18:11:07.525Z,11.10
2023-04-22T18:13:34.735Z,11.10
2023-04-22T18:16:03.997Z,11.10
2023-04-22T18:18:32.104Z,10.90
2023-04-22T18:21:00.884Z,11.00
2023-04-22T18:23:30.926Z,11.00
2023-04-22T18:25:59.329Z,10.90
2023-04-22T18:28:29.474Z,10.80
2023-04-22T18:30:56.533Z,10.80
2023-04-22T18:33:23.557Z,10.80
2023-04-22T18:35:52.264Z,10.80
2023-04-22T18:38:20.667Z,10.80
2023-04-22T18:40:47.684Z,10.70
2023-04-22T18:43:14.680Z,10.70
2023-04-22T18:45:41.837Z,10.70
2023-04-22T18:48:09.731Z,10.70
2023-04-22T18:50:39.164Z,10.70
2023-04-22T18:53:11.822Z,10.60
2023-04-22T18:55:38.929Z,10.60
2023-04-22T18:58:06.007Z,10.50
2023-04-22T19:00:33.055Z,10.50
2023-04-22T19:03:00.642Z,10.40
2023-04-22T19:05:28.231Z,10.40
2023-04-22T19:07:55.277Z,10.40
2023-04-22T19:10:22.267Z,10.40
2023-04-22T19:12:51.795Z,10.40
2023-04-22T19:15:21.276Z,10.30
2023-04-22T19:17:48.573Z,10.30
2023-04-22T19:20:15.713Z,10.20
2023-04-22T19:22:46.618Z,10.20
2023-04-22T19:25:13.735Z,10.20
2023-04-22T19:27:40.804Z,10.20
2023-04-22T19:30:08.364Z,10.10
2023-04-22T19:32:36.019Z,10.10
2023-04-22T19:35:04.313Z,10.20
2023-04-22T19:37:31.461Z,10.10
2023-04-22T19:39:58.993Z,10.10
2023-04-22T19:42:27.793Z,10.10
2023-04-22T19:44:56.703Z,10.10
2023-04-22T19:47:26.313Z,10.00
2023-04-22T19:49:57.957Z,10.00
2023-04-22T19:52:25.355Z,10.00
2023-04-22T19:54:58.812Z,10.00
2023-04-22T19:57:26.628Z,9.90
2023-04-22T19:59:54.541Z,9.80
2023-04-22T20:02:23.645Z,9.80
2023-04-22T20:04:51.080Z,9.80
2023-04-22T20:07:21.678Z,9.70
2023-04-22T20:09:49.568Z,9.70
2023-04-22T20:12:19.921Z,9.70
2023-04-22T20:14:49.263Z,9.70
2023-04-22T20:17:16.798Z,9.60
2023-04-22T20:19:47.599Z,9.70
2023-04-22T20:22:18.550Z,9.60
2023-04-22T20:24:47.280Z,9.60
2023-04-22T20:27:17.194Z,9.50
2023-04-22T20:29:45.068Z,9.40
2023-04-22T20:32:12.926Z,9.40
2023-04-22T20:34:42.375Z,9.40
2023-04-22T20:37:13.058Z,9.50
2023-04-22T20:39:43.272Z,9.40
2023-04-22T20:42:11.701Z,9.50
2023-04-22T20:44:39.103Z,9.40
2023-04-22T20:47:06.978Z,9.40
2023-04-22T20:49:34.254Z,9.40
2023-04-22T20:52:02.144Z,9.40
2023-04-22T20:54:30.478Z,9.30
2023-04-22T20:56:59.545Z,9.40
2023-04-22T20:59:28.316Z,9.30
2023-04-22T21:01:55.878Z,9.30
2023-04-22T21:04:24.606Z,9.30
2023-04-22T21:06:52.913Z,9.30
2023-04-22T21:09:24.028Z,9.30
2023-04-22T21:11:52.490Z,9.20
2023-04-22T21:14:22.255Z,9.20
2023-04-22T21:17:18.540Z,9.20
2023-04-22T21:19:51.440Z,9.20
2023-04-22T21:22:23.408Z,9.20
2023-04-22T21:24:52.901Z,9.20
2023-04-22T21:27:22.220Z,9.10
2023-04-22T21:29:50.044Z,9.20
2023-04-22T21:32:21.005Z,9.20
2023-04-22T21:34:51.060Z,9.10
2023-04-22T21:37:18.097Z,9.10
2023-04-22T21:39:45.290Z,9.10
2023-04-22T21:42:12.286Z,9.10
2023-04-22T21:44:45.878Z,9.10
2023-04-22T21:47:15.873Z,9.10
2023-04-22T21:49:43.300Z,9.10
2023-04-22T21:52:10.466Z,9.10
2023-04-22T21:54:37.436Z,9.10
2023-04-22T21:57:04.508Z,9.10
2023-04-22T21:59:31.553Z,9.10
2023-04-22T22:01:58.807Z,9.10
2023-04-22T22:04:25.910Z,9.20
2023-04-22T22:06:53.277Z,9.10
2023-04-22T22:09:21.451Z,9.10
2023-04-22T22:11:48.362Z,9.10
2023-04-22T22:14:15.504Z,9.00
2023-04-22T22:16:43.845Z,9.00
2023-04-22T22:19:14.501Z,9.10
2023-04-22T22:21:41.604Z,9.00
2023-04-22T22:24:09.576Z,9.00
2023-04-22T22:26:36.672Z,9.10
2023-04-22T22:29:04.053Z,9.10
2023-04-22T22:31:31.130Z,9.10
2023-04-22T22:33:58.824Z,9.10
2023-04-22T22:36:25.800Z,9.10
2023-04-22T22:38:52.794Z,9.10
2023-04-22T22:41:19.811Z,9.10
2023-04-22T22:43:46.808Z,9.00
2023-04-22T22:46:14.118Z,9.10
2023-04-22T22:48:41.384Z,9.10
2023-04-22T22:51:09.520Z,9.10
2023-04-22T22:53:36.851Z,9.10
2023-04-22T22:56:03.952Z,9.10
2023-04-22T22:58:31.309Z,9.00
2023-04-22T23:00:58.428Z,9.00
2023-04-22T23:03:25.807Z,9.00
2023-04-22T23:05:52.984Z,9.00
2023-04-22T23:08:19.999Z,9.00
2023-04-22T23:10:47.148Z,9.00
2023-04-22T23:13:14.254Z,9.00
2023-04-22T23:15:41.200Z,9.00
2023-04-22T23:18:09.244Z,9.00
2023-04-22T23:20:37.959Z,8.90
2023-04-22T23:23:05.904Z,8.90
2023-04-22T23:25:33.160Z,8.90
2023-04-22T23:28:00.727Z,8.90
2023-04-22T23:30:28.058Z,8.90
2023-04-22T23:32:58.920Z,8.90
2023-04-22T23:35:27.542Z,8.90
2023-04-22T23:37:54.818Z,8.90
2023-04-22T23:40:21.777Z,8.90
2023-04-22T23:42:48.833Z,8.90
2023-04-22T23:45:15.911Z,8.80
2023-04-22T23:47:42.852Z,8.80
2023-04-22T23:50:10.408Z,8.80
2023-04-22T23:52:41.162Z,8.80
2023-04-22T23:55:10.444Z,8.70
2023-04-22T23:57:38.177Z,8.80
